sensor_id;sensor_type;location;lat;lon;timestamp;temperature;humidity
26342;DHT22;14054;50.108;8.640;2024-01-06T00:02:07;5.50;99.90
26342;DHT22;14054;50.108;8.640;2024-01-06T00:04:32;5.50;99.90
26342;DHT22;14054;50.108;8.640;2024-01-06T00:06:58;5.50;99.90
26342;DHT22;14054;50.108;8.640;2024-01-06T00:09:23;5.40;99.90
26342;DHT22;14054;50.108;8.640;2024-01-06T00:11:49;5.40;99.90
26342;DHT22;14054;50.108;8.640;2024-01-06T00:14:17;5.40;99.90
26342;DHT22;14054;50.108;8.640;2024-01-06T00:16:43;5.40;99.90
26342;DHT22;14054;50.108;8.640;2024-01-06T00:19:08;5.30;99.90
26342;DHT22;14054;50.108;8.640;2024-01-06T00:21:34;5.30;99.90
26342;DHT22;14054;50.108;8.640;2024-01-06T00:23:59;5.30;99.90
26342;DHT22;14054;50.108;8.640;2024-01-06T00:26:25;5.30;99.90
26342;DHT22;14054;50.108;8.640;2024-01-06T00:28:50;5.20;99.90
26342;DHT22;14054;50.108;8.640;2024-01-06T00:31:16;5.20;99.90
26342;DHT22;14054;50.108;8.640;2024-01-06T00:33:42;5.20;99.90
26342;DHT22;14054;50.108;8.640;2024-01-06T00:36:08;5.10;99.90
26342;DHT22;14054;50.108;8.640;2024-01-06T00:38:34;5.10;99.90
26342;DHT22;14054;50.108;8.640;2024-01-06T00:41:03;5.10;99.90
26342;DHT22;14054;50.108;8.640;2024-01-06T00:43:29;5.10;99.90
26342;DHT22;14054;50.108;8.640;2024-01-06T00:45:54;5.00;99.90
26342;DHT22;14054;50.108;8.640;2024-01-06T00:48:20;5.00;99.90
26342;DHT22;14054;50.108;8.640;2024-01-06T00:50:45;5.00;99.90
26342;DHT22;14054;50.108;8.640;2024-01-06T00:53:12;4.90;99.90
26342;DHT22;14054;50.108;8.640;2024-01-06T00:55:37;4.90;99.90
26342;DHT22;14054;50.108;8.640;2024-01-06T00:58:03;4.90;99.90
26342;DHT22;14054;50.108;8.640;2024-01-06T01:00:28;4.80;99.90
26342;DHT22;14054;50.108;8.640;2024-01-06T01:02:54;4.80;99.90
26342;DHT22;14054;50.108;8.640;2024-01-06T01:05:19;4.70;99.90
26342;DHT22;14054;50.108;8.640;2024-01-06T01:07:45;4.70;99.90
26342;DHT22;14054;50.108;8.640;2024-01-06T01:10:10;4.70;99.90
26342;DHT22;14054;50.108;8.640;2024-01-06T01:12:36;4.80;99.90
26342;DHT22;14054;50.108;8.640;2024-01-06T01:15:02;4.70;99.90
26342;DHT22;14054;50.108;8.640;2024-01-06T01:17:28;4.80;99.90
26342;DHT22;14054;50.108;8.640;2024-01-06T01:19:54;4.80;99.90
26342;DHT22;14054;50.108;8.640;2024-01-06T01:22:19;4.80;99.90
26342;DHT22;14054;50.108;8.640;2024-01-06T01:24:45;4.80;99.90
26342;DHT22;14054;50.108;8.640;2024-01-06T01:27:10;4.90;99.90
26342;DHT22;14054;50.108;8.640;2024-01-06T01:29:36;4.90;99.90
26342;DHT22;14054;50.108;8.640;2024-01-06T01:32:01;4.90;99.90
26342;DHT22;14054;50.108;8.640;2024-01-06T01:34:27;5.00;99.90
26342;DHT22;14054;50.108;8.640;2024-01-06T01:36:52;5.10;99.90
26342;DHT22;14054;50.108;8.640;2024-01-06T01:39:18;5.10;99.90
26342;DHT22;14054;50.108;8.640;2024-01-06T01:41:43;5.10;99.90
26342;DHT22;14054;50.108;8.640;2024-01-06T01:44:08;5.10;99.90
26342;DHT22;14054;50.108;8.640;2024-01-06T01:46:34;5.20;99.90
26342;DHT22;14054;50.108;8.640;2024-01-06T01:49:01;5.20;99.90
26342;DHT22;14054;50.108;8.640;2024-01-06T01:51:29;5.20;99.90
26342;DHT22;14054;50.108;8.640;2024-01-06T01:53:57;5.30;99.90
26342;DHT22;14054;50.108;8.640;2024-01-06T01:56:24;5.20;99.90
26342;DHT22;14054;50.108;8.640;2024-01-06T01:58:50;5.30;99.90
26342;DHT22;14054;50.108;8.640;2024-01-06T02:01:16;5.30;99.90
26342;DHT22;14054;50.108;8.640;2024-01-06T02:03:42;5.40;99.90
26342;DHT22;14054;50.108;8.640;2024-01-06T02:06:11;5.40;99.90
26342;DHT22;14054;50.108;8.640;2024-01-06T02:08:37;5.40;99.90
26342;DHT22;14054;50.108;8.640;2024-01-06T02:11:03;5.50;99.90
26342;DHT22;14054;50.108;8.640;2024-01-06T02:13:36;5.50;99.90
26342;DHT22;14054;50.108;8.640;2024-01-06T02:16:03;5.50;99.90
26342;DHT22;14054;50.108;8.640;2024-01-06T02:18:32;5.50;99.90
26342;DHT22;14054;50.108;8.640;2024-01-06T02:21:00;5.50;99.90
26342;DHT22;14054;50.108;8.640;2024-01-06T02:23:26;5.50;99.90
26342;DHT22;14054;50.108;8.640;2024-01-06T02:25:52;5.50;99.90
26342;DHT22;14054;50.108;8.640;2024-01-06T02:28:18;5.50;99.90
26342;DHT22;14054;50.108;8.640;2024-01-06T02:30:43;5.50;99.90
26342;DHT22;14054;50.108;8.640;2024-01-06T02:33:09;5.60;99.90
26342;DHT22;14054;50.108;8.640;2024-01-06T02:35:35;5.60;99.90
26342;DHT22;14054;50.108;8.640;2024-01-06T02:38:00;5.60;99.90
26342;DHT22;14054;50.108;8.640;2024-01-06T02:40:26;5.60;99.90
26342;DHT22;14054;50.108;8.640;2024-01-06T02:42:51;5.60;99.90
26342;DHT22;14054;50.108;8.640;2024-01-06T02:45:17;5.60;99.90
26342;DHT22;14054;50.108;8.640;2024-01-06T02:47:42;5.60;99.90
26342;DHT22;14054;50.108;8.640;2024-01-06T02:50:08;5.60;99.90
26342;DHT22;14054;50.108;8.640;2024-01-06T02:52:33;5.60;99.90
26342;DHT22;14054;50.108;8.640;2024-01-06T02:54:59;5.60;99.90
26342;DHT22;14054;50.108;8.640;2024-01-06T02:57:27;5.60;99.90
26342;DHT22;14054;50.108;8.640;2024-01-06T02:59:52;5.70;99.90
26342;DHT22;14054;50.108;8.640;2024-01-06T03:02:18;5.60;99.90
26342;DHT22;14054;50.108;8.640;2024-01-06T03:04:43;5.70;99.90
26342;DHT22;14054;50.108;8.640;2024-01-06T03:07:09;5.70;99.90
26342;DHT22;14054;50.108;8.640;2024-01-06T03:09:35;5.70;99.90
26342;DHT22;14054;50.108;8.640;2024-01-06T03:12:01;5.70;99.90
26342;DHT22;14054;50.108;8.640;2024-01-06T03:14:26;5.70;99.90
26342;DHT22;14054;50.108;8.640;2024-01-06T03:16:52;5.70;99.90
26342;DHT22;14054;50.108;8.640;2024-01-06T03:19:17;5.70;99.90
26342;DHT22;14054;50.108;8.640;2024-01-06T03:21:43;5.70;99.90
26342;DHT22;14054;50.108;8.640;2024-01-06T03:24:08;5.70;99.90
26342;DHT22;14054;50.108;8.640;2024-01-06T03:26:36;5.70;99.90
26342;DHT22;14054;50.108;8.640;2024-01-06T03:29:02;5.70;99.90
26342;DHT22;14054;50.108;8.640;2024-01-06T03:31:29;5.70;99.90
26342;DHT22;14054;50.108;8.640;2024-01-06T03:33:54;5.70;99.90
26342;DHT22;14054;50.108;8.640;2024-01-06T03:36:21;5.70;99.90
26342;DHT22;14054;50.108;8.640;2024-01-06T03:38:46;5.70;99.90
26342;DHT22;14054;50.108;8.640;2024-01-06T03:41:12;5.70;99.90
26342;DHT22;14054;50.108;8.640;2024-01-06T03:43:37;5.70;99.90
26342;DHT22;14054;50.108;8.640;2024-01-06T03:46:03;5.70;99.90
26342;DHT22;14054;50.108;8.640;2024-01-06T03:48:30;5.70;99.90
26342;DHT22;14054;50.108;8.640;2024-01-06T03:50:55;5.70;99.90
26342;DHT22;14054;50.108;8.640;2024-01-06T03:53:20;5.70;99.90
26342;DHT22;14054;50.108;8.640;2024-01-06T03:55:46;5.70;99.90
26342;DHT22;14054;50.108;8.640;2024-01-06T03:58:11;5.70;99.90
26342;DHT22;14054;50.108;8.640;2024-01-06T04:00:37;5.70;99.90
26342;DHT22;14054;50.108;8.640;2024-01-06T04:03:02;5.70;99.90
26342;DHT22;14054;50.108;8.640;2024-01-06T04:05:28;5.70;99.90
26342;DHT22;14054;50.108;8.640;2024-01-06T04:07:54;5.70;99.90
26342;DHT22;14054;50.108;8.640;2024-01-06T04:10:19;5.70;99.90
26342;DHT22;14054;50.108;8.640;2024-01-06T04:12:45;5.70;99.90
26342;DHT22;14054;50.108;8.640;2024-01-06T04:15:10;5.70;99.90
26342;DHT22;14054;50.108;8.640;2024-01-06T04:17:35;5.70;99.90
26342;DHT22;14054;50.108;8.640;2024-01-06T04:20:01;5.70;99.90
26342;DHT22;14054;50.108;8.640;2024-01-06T04:22:26;5.70;99.90
26342;DHT22;14054;50.108;8.640;2024-01-06T04:24:52;5.70;99.90
26342;DHT22;14054;50.108;8.640;2024-01-06T04:27:17;5.70;99.90
26342;DHT22;14054;50.108;8.640;2024-01-06T04:29:43;5.70;99.90
26342;DHT22;14054;50.108;8.640;2024-01-06T04:32:09;5.70;99.90
26342;DHT22;14054;50.108;8.640;2024-01-06T04:34:34;5.70;99.90
26342;DHT22;14054;50.108;8.640;2024-01-06T04:37:00;5.70;99.90
26342;DHT22;14054;50.108;8.640;2024-01-06T04:39:25;5.70;99.90
26342;DHT22;14054;50.108;8.640;2024-01-06T04:41:51;5.70;99.90
26342;DHT22;14054;50.108;8.640;2024-01-06T04:44:19;5.70;99.90
26342;DHT22;14054;50.108;8.640;2024-01-06T04:46:45;5.70;99.90
26342;DHT22;14054;50.108;8.640;2024-01-06T04:49:10;5.70;99.90
26342;DHT22;14054;50.108;8.640;2024-01-06T04:51:36;5.70;99.90
26342;DHT22;14054;50.108;8.640;2024-01-06T04:54:01;5.70;99.90
26342;DHT22;14054;50.108;8.640;2024-01-06T04:56:27;5.80;99.90
26342;DHT22;14054;50.108;8.640;2024-01-06T04:58:53;5.80;99.90
26342;DHT22;14054;50.108;8.640;2024-01-06T05:01:18;5.80;99.90
26342;DHT22;14054;50.108;8.640;2024-01-06T05:03:44;5.80;99.90
26342;DHT22;14054;50.108;8.640;2024-01-06T05:06:09;5.70;99.90
26342;DHT22;14054;50.108;8.640;2024-01-06T05:08:35;5.70;99.90
26342;DHT22;14054;50.108;8.640;2024-01-06T05:11:04;5.70;99.90
26342;DHT22;14054;50.108;8.640;2024-01-06T05:13:30;5.60;99.90
26342;DHT22;14054;50.108;8.640;2024-01-06T05:15:55;5.60;99.90
26342;DHT22;14054;50.108;8.640;2024-01-06T05:18:21;5.60;99.90
26342;DHT22;14054;50.108;8.640;2024-01-06T05:20:48;5.70;99.90
26342;DHT22;14054;50.108;8.640;2024-01-06T05:23:14;5.70;99.90
26342;DHT22;14054;50.108;8.640;2024-01-06T05:25:39;5.70;99.90
26342;DHT22;14054;50.108;8.640;2024-01-06T05:28:05;5.70;99.90
26342;DHT22;14054;50.108;8.640;2024-01-06T05:30:30;5.70;99.90
26342;DHT22;14054;50.108;8.640;2024-01-06T05:32:56;5.70;99.90
26342;DHT22;14054;50.108;8.640;2024-01-06T05:35:21;5.70;99.90
26342;DHT22;14054;50.108;8.640;2024-01-06T05:37:47;5.70;99.90
26342;DHT22;14054;50.108;8.640;2024-01-06T05:40:13;5.70;99.90
26342;DHT22;14054;50.108;8.640;2024-01-06T05:42:39;5.70;99.90
26342;DHT22;14054;50.108;8.640;2024-01-06T05:45:05;5.60;99.90
26342;DHT22;14054;50.108;8.640;2024-01-06T05:47:31;5.60;99.90
26342;DHT22;14054;50.108;8.640;2024-01-06T05:49:56;5.70;99.90
26342;DHT22;14054;50.108;8.640;2024-01-06T05:52:22;5.70;99.90
26342;DHT22;14054;50.108;8.640;2024-01-06T05:54:48;5.70;99.90
26342;DHT22;14054;50.108;8.640;2024-01-06T05:57:14;5.70;99.90
26342;DHT22;14054;50.108;8.640;2024-01-06T05:59:40;5.70;99.90
26342;DHT22;14054;50.108;8.640;2024-01-06T06:02:05;5.70;99.90
26342;DHT22;14054;50.108;8.640;2024-01-06T06:04:31;5.70;99.90
26342;DHT22;14054;50.108;8.640;2024-01-06T06:06:56;5.70;99.90
26342;DHT22;14054;50.108;8.640;2024-01-06T06:09:22;5.70;99.90
26342;DHT22;14054;50.108;8.640;2024-01-06T06:11:47;5.70;99.90
26342;DHT22;14054;50.108;8.640;2024-01-06T06:14:13;5.70;99.90
26342;DHT22;14054;50.108;8.640;2024-01-06T06:16:39;5.70;99.90
26342;DHT22;14054;50.108;8.640;2024-01-06T06:19:04;5.70;99.90
26342;DHT22;14054;50.108;8.640;2024-01-06T06:21:30;5.70;99.90
26342;DHT22;14054;50.108;8.640;2024-01-06T06:23:56;5.70;99.90
26342;DHT22;14054;50.108;8.640;2024-01-06T06:26:21;5.70;99.90
26342;DHT22;14054;50.108;8.640;2024-01-06T06:28:47;5.70;99.90
26342;DHT22;14054;50.108;8.640;2024-01-06T06:31:12;5.70;99.90
26342;DHT22;14054;50.108;8.640;2024-01-06T06:33:38;5.70;99.90
26342;DHT22;14054;50.108;8.640;2024-01-06T06:36:04;5.70;99.90
26342;DHT22;14054;50.108;8.640;2024-01-06T06:38:30;5.80;99.90
26342;DHT22;14054;50.108;8.640;2024-01-06T06:40:55;5.70;99.90
26342;DHT22;14054;50.108;8.640;2024-01-06T06:43:21;5.80;99.90
26342;DHT22;14054;50.108;8.640;2024-01-06T06:45:47;5.70;99.90
26342;DHT22;14054;50.108;8.640;2024-01-06T06:48:12;5.70;99.90
26342;DHT22;14054;50.108;8.640;2024-01-06T06:50:38;5.70;99.90
26342;DHT22;14054;50.108;8.640;2024-01-06T06:53:03;5.70;99.90
26342;DHT22;14054;50.108;8.640;2024-01-06T06:55:29;5.70;99.90
26342;DHT22;14054;50.108;8.640;2024-01-06T06:57:54;5.70;99.90
26342;DHT22;14054;50.108;8.640;2024-01-06T07:00:20;5.70;99.90
26342;DHT22;14054;50.108;8.640;2024-01-06T07:02:46;5.70;99.90
26342;DHT22;14054;50.108;8.640;2024-01-06T07:05:11;5.70;99.90
26342;DHT22;14054;50.108;8.640;2024-01-06T07:07:37;5.70;99.90
26342;DHT22;14054;50.108;8.640;2024-01-06T07:10:04;5.70;99.90
26342;DHT22;14054;50.108;8.640;2024-01-06T07:12:30;5.70;99.90
26342;DHT22;14054;50.108;8.640;2024-01-06T07:14:56;5.70;99.90
26342;DHT22;14054;50.108;8.640;2024-01-06T07:17:21;5.70;99.90
26342;DHT22;14054;50.108;8.640;2024-01-06T07:19:47;5.60;99.90
26342;DHT22;14054;50.108;8.640;2024-01-06T07:22:14;5.70;99.90
26342;DHT22;14054;50.108;8.640;2024-01-06T07:24:41;5.70;99.90
26342;DHT22;14054;50.108;8.640;2024-01-06T07:27:07;5.60;99.90
26342;DHT22;14054;50.108;8.640;2024-01-06T07:29:32;5.60;99.90
26342;DHT22;14054;50.108;8.640;2024-01-06T07:31:58;5.60;99.90
26342;DHT22;14054;50.108;8.640;2024-01-06T07:34:23;5.60;99.90
26342;DHT22;14054;50.108;8.640;2024-01-06T07:36:50;5.60;99.90
26342;DHT22;14054;50.108;8.640;2024-01-06T07:39:16;5.60;99.90
26342;DHT22;14054;50.108;8.640;2024-01-06T07:41:42;5.60;99.90
26342;DHT22;14054;50.108;8.640;2024-01-06T07:44:07;5.60;99.90
26342;DHT22;14054;50.108;8.640;2024-01-06T07:46:33;5.60;99.90
26342;DHT22;14054;50.108;8.640;2024-01-06T07:49:00;5.70;99.90
26342;DHT22;14054;50.108;8.640;2024-01-06T07:51:26;5.70;99.90
26342;DHT22;14054;50.108;8.640;2024-01-06T07:53:51;5.70;99.90
26342;DHT22;14054;50.108;8.640;2024-01-06T07:56:16;5.70;99.90
26342;DHT22;14054;50.108;8.640;2024-01-06T07:58:42;5.70;99.90
26342;DHT22;14054;50.108;8.640;2024-01-06T08:01:08;5.70;99.90
26342;DHT22;14054;50.108;8.640;2024-01-06T08:03:33;5.70;99.90
26342;DHT22;14054;50.108;8.640;2024-01-06T08:05:59;5.70;99.90
26342;DHT22;14054;50.108;8.640;2024-01-06T08:08:25;5.80;99.90
26342;DHT22;14054;50.108;8.640;2024-01-06T08:10:50;5.80;99.90
26342;DHT22;14054;50.108;8.640;2024-01-06T08:13:15;5.80;99.90
26342;DHT22;14054;50.108;8.640;2024-01-06T08:15:41;5.80;99.90
26342;DHT22;14054;50.108;8.640;2024-01-06T08:18:07;5.80;99.90
26342;DHT22;14054;50.108;8.640;2024-01-06T08:20:32;5.80;99.90
26342;DHT22;14054;50.108;8.640;2024-01-06T08:22:58;5.80;99.90
26342;DHT22;14054;50.108;8.640;2024-01-06T08:25:24;5.80;99.90
26342;DHT22;14054;50.108;8.640;2024-01-06T08:27:49;5.90;99.90
26342;DHT22;14054;50.108;8.640;2024-01-06T08:30:15;5.90;99.90
26342;DHT22;14054;50.108;8.640;2024-01-06T08:32:40;5.90;99.90
26342;DHT22;14054;50.108;8.640;2024-01-06T08:35:06;5.90;99.90
26342;DHT22;14054;50.108;8.640;2024-01-06T08:37:32;6.00;99.90
26342;DHT22;14054;50.108;8.640;2024-01-06T08:39:57;5.90;99.90
26342;DHT22;14054;50.108;8.640;2024-01-06T08:42:23;6.00;99.90
26342;DHT22;14054;50.108;8.640;2024-01-06T08:44:51;6.00;99.90
26342;DHT22;14054;50.108;8.640;2024-01-06T08:47:16;6.00;99.90
26342;DHT22;14054;50.108;8.640;2024-01-06T08:49:42;6.00;99.90
26342;DHT22;14054;50.108;8.640;2024-01-06T08:52:08;6.00;99.90
26342;DHT22;14054;50.108;8.640;2024-01-06T08:54:33;6.00;99.90
26342;DHT22;14054;50.108;8.640;2024-01-06T08:56:59;6.10;99.90
26342;DHT22;14054;50.108;8.640;2024-01-06T08:59:25;6.10;99.90
26342;DHT22;14054;50.108;8.640;2024-01-06T09:01:51;6.20;99.90
26342;DHT22;14054;50.108;8.640;2024-01-06T09:04:17;6.20;99.90
26342;DHT22;14054;50.108;8.640;2024-01-06T09:06:43;6.20;99.90
26342;DHT22;14054;50.108;8.640;2024-01-06T09:09:08;6.20;99.90
26342;DHT22;14054;50.108;8.640;2024-01-06T09:11:35;6.20;99.90
26342;DHT22;14054;50.108;8.640;2024-01-06T09:14:00;6.20;99.90
26342;DHT22;14054;50.108;8.640;2024-01-06T09:16:26;6.20;99.90
26342;DHT22;14054;50.108;8.640;2024-01-06T09:18:52;6.10;99.90
26342;DHT22;14054;50.108;8.640;2024-01-06T09:21:17;6.10;99.90
26342;DHT22;14054;50.108;8.640;2024-01-06T09:23:43;6.10;99.90
26342;DHT22;14054;50.108;8.640;2024-01-06T09:26:09;6.10;99.90
26342;DHT22;14054;50.108;8.640;2024-01-06T09:28:34;6.20;99.90
26342;DHT22;14054;50.108;8.640;2024-01-06T09:31:00;6.20;99.90
26342;DHT22;14054;50.108;8.640;2024-01-06T09:33:25;6.20;99.90
26342;DHT22;14054;50.108;8.640;2024-01-06T09:35:51;6.10;99.90
26342;DHT22;14054;50.108;8.640;2024-01-06T09:38:16;6.00;99.90
26342;DHT22;14054;50.108;8.640;2024-01-06T09:40:43;6.00;99.90
26342;DHT22;14054;50.108;8.640;2024-01-06T09:43:13;6.10;99.90
26342;DHT22;14054;50.108;8.640;2024-01-06T09:45:39;6.10;99.90
26342;DHT22;14054;50.108;8.640;2024-01-06T09:48:12;6.10;99.90
26342;DHT22;14054;50.108;8.640;2024-01-06T09:50:42;6.00;99.90
26342;DHT22;14054;50.108;8.640;2024-01-06T09:53:11;5.90;99.90
26342;DHT22;14054;50.108;8.640;2024-01-06T09:55:37;6.00;99.90
26342;DHT22;14054;50.108;8.640;2024-01-06T09:58:04;6.00;99.90
26342;DHT22;14054;50.108;8.640;2024-01-06T10:00:31;6.10;99.90
26342;DHT22;14054;50.108;8.640;2024-01-06T10:02:57;6.20;99.90
26342;DHT22;14054;50.108;8.640;2024-01-06T10:05:23;6.20;99.90
26342;DHT22;14054;50.108;8.640;2024-01-06T10:07:49;6.10;99.90
26342;DHT22;14054;50.108;8.640;2024-01-06T10:10:15;6.20;99.90
26342;DHT22;14054;50.108;8.640;2024-01-06T10:12:41;6.30;99.90
26342;DHT22;14054;50.108;8.640;2024-01-06T10:15:08;6.30;99.90
26342;DHT22;14054;50.108;8.640;2024-01-06T10:17:38;6.30;99.90
26342;DHT22;14054;50.108;8.640;2024-01-06T10:20:09;6.40;99.90
26342;DHT22;14054;50.108;8.640;2024-01-06T10:22:37;6.40;99.90
26342;DHT22;14054;50.108;8.640;2024-01-06T10:25:05;6.50;99.90
26342;DHT22;14054;50.108;8.640;2024-01-06T10:27:34;6.50;99.90
26342;DHT22;14054;50.108;8.640;2024-01-06T10:29:59;6.60;99.90
26342;DHT22;14054;50.108;8.640;2024-01-06T10:32:25;6.60;99.90
26342;DHT22;14054;50.108;8.640;2024-01-06T10:34:55;6.60;99.90
26342;DHT22;14054;50.108;8.640;2024-01-06T10:37:20;6.70;99.90
26342;DHT22;14054;50.108;8.640;2024-01-06T10:39:46;6.80;99.90
26342;DHT22;14054;50.108;8.640;2024-01-06T10:42:12;6.80;99.90
26342;DHT22;14054;50.108;8.640;2024-01-06T10:44:39;6.70;99.90
26342;DHT22;14054;50.108;8.640;2024-01-06T10:47:06;6.80;99.90
26342;DHT22;14054;50.108;8.640;2024-01-06T10:49:32;6.80;99.90
26342;DHT22;14054;50.108;8.640;2024-01-06T10:51:59;6.80;99.90
26342;DHT22;14054;50.108;8.640;2024-01-06T10:54:27;6.80;99.90
26342;DHT22;14054;50.108;8.640;2024-01-06T10:56:53;6.80;99.90
26342;DHT22;14054;50.108;8.640;2024-01-06T10:59:21;6.80;99.90
26342;DHT22;14054;50.108;8.640;2024-01-06T11:01:50;6.80;99.90
26342;DHT22;14054;50.108;8.640;2024-01-06T11:04:17;6.90;99.90
26342;DHT22;14054;50.108;8.640;2024-01-06T11:06:43;7.00;99.90
26342;DHT22;14054;50.108;8.640;2024-01-06T11:09:22;7.00;99.90
26342;DHT22;14054;50.108;8.640;2024-01-06T11:11:49;7.10;99.90
26342;DHT22;14054;50.108;8.640;2024-01-06T11:14:37;7.00;99.90
26342;DHT22;14054;50.108;8.640;2024-01-06T11:17:03;7.10;99.90
26342;DHT22;14054;50.108;8.640;2024-01-06T11:24:56;7.30;99.90
26342;DHT22;14054;50.108;8.640;2024-01-06T11:27:24;7.40;99.90
26342;DHT22;14054;50.108;8.640;2024-01-06T11:29:54;7.50;99.90
26342;DHT22;14054;50.108;8.640;2024-01-06T11:32:31;7.60;99.90
26342;DHT22;14054;50.108;8.640;2024-01-06T11:35:09;7.70;99.90
26342;DHT22;14054;50.108;8.640;2024-01-06T11:40:15;7.80;99.90
26342;DHT22;14054;50.108;8.640;2024-01-06T11:42:42;7.70;99.90
26342;DHT22;14054;50.108;8.640;2024-01-06T11:45:08;7.70;99.90
26342;DHT22;14054;50.108;8.640;2024-01-06T11:47:37;7.80;99.90
26342;DHT22;14054;50.108;8.640;2024-01-06T11:50:03;7.90;99.90
26342;DHT22;14054;50.108;8.640;2024-01-06T11:52:32;8.10;99.90
26342;DHT22;14054;50.108;8.640;2024-01-06T11:54:59;8.20;99.90
26342;DHT22;14054;50.108;8.640;2024-01-06T11:57:26;8.50;99.90
26342;DHT22;14054;50.108;8.640;2024-01-06T11:59:52;8.70;99.90
26342;DHT22;14054;50.108;8.640;2024-01-06T12:02:18;8.80;99.90
26342;DHT22;14054;50.108;8.640;2024-01-06T12:04:51;8.80;99.90
26342;DHT22;14054;50.108;8.640;2024-01-06T12:07:18;8.60;99.90
26342;DHT22;14054;50.108;8.640;2024-01-06T12:09:45;8.50;99.90
26342;DHT22;14054;50.108;8.640;2024-01-06T12:12:11;8.40;99.90
26342;DHT22;14054;50.108;8.640;2024-01-06T12:14:40;8.20;99.90
26342;DHT22;14054;50.108;8.640;2024-01-06T12:17:06;8.20;99.90
26342;DHT22;14054;50.108;8.640;2024-01-06T12:19:32;8.00;99.90
26342;DHT22;14054;50.108;8.640;2024-01-06T12:21:58;8.00;99.90
26342;DHT22;14054;50.108;8.640;2024-01-06T12:24:27;8.00;99.90
26342;DHT22;14054;50.108;8.640;2024-01-06T12:26:52;8.00;99.90
26342;DHT22;14054;50.108;8.640;2024-01-06T12:29:18;7.90;99.90
26342;DHT22;14054;50.108;8.640;2024-01-06T12:31:46;7.80;99.90
26342;DHT22;14054;50.108;8.640;2024-01-06T12:34:11;7.80;99.90
26342;DHT22;14054;50.108;8.640;2024-01-06T12:36:38;7.70;99.90
26342;DHT22;14054;50.108;8.640;2024-01-06T12:39:04;7.70;99.90
26342;DHT22;14054;50.108;8.640;2024-01-06T12:41:29;7.70;99.90
26342;DHT22;14054;50.108;8.640;2024-01-06T12:43:55;7.70;99.90
26342;DHT22;14054;50.108;8.640;2024-01-06T12:46:21;7.70;99.90
26342;DHT22;14054;50.108;8.640;2024-01-06T12:48:46;7.70;99.90
26342;DHT22;14054;50.108;8.640;2024-01-06T12:51:12;7.70;99.90
26342;DHT22;14054;50.108;8.640;2024-01-06T12:53:37;7.80;99.90
26342;DHT22;14054;50.108;8.640;2024-01-06T12:56:03;7.70;99.90
26342;DHT22;14054;50.108;8.640;2024-01-06T12:58:29;7.80;99.90
26342;DHT22;14054;50.108;8.640;2024-01-06T13:00:54;7.70;99.90
26342;DHT22;14054;50.108;8.640;2024-01-06T13:03:20;7.80;99.90
26342;DHT22;14054;50.108;8.640;2024-01-06T13:05:45;7.80;99.90
26342;DHT22;14054;50.108;8.640;2024-01-06T13:08:11;7.70;99.90
26342;DHT22;14054;50.108;8.640;2024-01-06T13:10:37;7.80;99.90
26342;DHT22;14054;50.108;8.640;2024-01-06T13:13:02;7.80;99.90
26342;DHT22;14054;50.108;8.640;2024-01-06T13:15:28;7.90;99.90
26342;DHT22;14054;50.108;8.640;2024-01-06T13:17:53;8.00;99.90
26342;DHT22;14054;50.108;8.640;2024-01-06T13:20:19;8.10;99.90
26342;DHT22;14054;50.108;8.640;2024-01-06T13:22:44;8.10;99.90
26342;DHT22;14054;50.108;8.640;2024-01-06T13:25:10;8.10;99.90
26342;DHT22;14054;50.108;8.640;2024-01-06T13:27:37;8.10;99.90
26342;DHT22;14054;50.108;8.640;2024-01-06T13:30:03;8.10;99.90
26342;DHT22;14054;50.108;8.640;2024-01-06T13:32:29;8.10;99.90
26342;DHT22;14054;50.108;8.640;2024-01-06T13:34:54;8.20;99.90
26342;DHT22;14054;50.108;8.640;2024-01-06T13:37:27;8.20;99.90
26342;DHT22;14054;50.108;8.640;2024-01-06T13:39:52;8.20;99.90
26342;DHT22;14054;50.108;8.640;2024-01-06T13:42:18;8.20;99.90
26342;DHT22;14054;50.108;8.640;2024-01-06T13:44:46;8.20;99.90
26342;DHT22;14054;50.108;8.640;2024-01-06T13:47:13;8.10;99.90
26342;DHT22;14054;50.108;8.640;2024-01-06T13:49:39;8.10;99.90
26342;DHT22;14054;50.108;8.640;2024-01-06T13:52:05;8.00;99.90
26342;DHT22;14054;50.108;8.640;2024-01-06T13:54:30;8.00;99.90
26342;DHT22;14054;50.108;8.640;2024-01-06T13:56:56;8.00;99.90
26342;DHT22;14054;50.108;8.640;2024-01-06T13:59:21;8.10;99.90
26342;DHT22;14054;50.108;8.640;2024-01-06T14:01:47;8.00;99.90
26342;DHT22;14054;50.108;8.640;2024-01-06T14:04:12;7.90;99.90
26342;DHT22;14054;50.108;8.640;2024-01-06T14:06:38;7.80;99.90
26342;DHT22;14054;50.108;8.640;2024-01-06T14:09:05;7.70;99.90
26342;DHT22;14054;50.108;8.640;2024-01-06T14:11:31;7.70;99.90
26342;DHT22;14054;50.108;8.640;2024-01-06T14:13:59;7.70;99.90
26342;DHT22;14054;50.108;8.640;2024-01-06T14:16:25;7.70;99.90
26342;DHT22;14054;50.108;8.640;2024-01-06T14:18:51;7.70;99.90
26342;DHT22;14054;50.108;8.640;2024-01-06T14:21:16;7.70;99.90
26342;DHT22;14054;50.108;8.640;2024-01-06T14:23:45;7.70;99.90
26342;DHT22;14054;50.108;8.640;2024-01-06T14:26:11;7.70;99.90
26342;DHT22;14054;50.108;8.640;2024-01-06T14:28:36;7.60;99.90
26342;DHT22;14054;50.108;8.640;2024-01-06T14:31:02;7.60;99.90
26342;DHT22;14054;50.108;8.640;2024-01-06T14:33:28;7.60;99.90
26342;DHT22;14054;50.108;8.640;2024-01-06T14:35:54;7.50;99.90
26342;DHT22;14054;50.108;8.640;2024-01-06T14:38:20;7.50;99.90
26342;DHT22;14054;50.108;8.640;2024-01-06T14:40:46;7.50;99.90
26342;DHT22;14054;50.108;8.640;2024-01-06T14:43:11;7.50;99.90
26342;DHT22;14054;50.108;8.640;2024-01-06T14:45:37;7.50;99.90
26342;DHT22;14054;50.108;8.640;2024-01-06T14:48:03;7.50;99.90
26342;DHT22;14054;50.108;8.640;2024-01-06T14:50:29;7.50;99.90
26342;DHT22;14054;50.108;8.640;2024-01-06T14:52:54;7.50;99.90
26342;DHT22;14054;50.108;8.640;2024-01-06T14:55:20;7.40;99.90
26342;DHT22;14054;50.108;8.640;2024-01-06T14:57:45;7.40;99.90
26342;DHT22;14054;50.108;8.640;2024-01-06T15:00:11;7.30;99.90
26342;DHT22;14054;50.108;8.640;2024-01-06T15:02:38;7.30;99.90
26342;DHT22;14054;50.108;8.640;2024-01-06T15:05:05;7.20;99.90
26342;DHT22;14054;50.108;8.640;2024-01-06T15:07:31;7.20;99.90
26342;DHT22;14054;50.108;8.640;2024-01-06T15:09:59;7.20;99.90
26342;DHT22;14054;50.108;8.640;2024-01-06T15:12:25;7.20;99.90
26342;DHT22;14054;50.108;8.640;2024-01-06T15:14:50;7.20;99.90
26342;DHT22;14054;50.108;8.640;2024-01-06T15:17:16;7.20;99.90
26342;DHT22;14054;50.108;8.640;2024-01-06T15:19:45;7.20;99.90
26342;DHT22;14054;50.108;8.640;2024-01-06T15:22:10;7.20;99.90
26342;DHT22;14054;50.108;8.640;2024-01-06T15:24:36;7.20;99.90
26342;DHT22;14054;50.108;8.640;2024-01-06T15:27:01;7.10;99.90
26342;DHT22;14054;50.108;8.640;2024-01-06T15:29:27;7.10;99.90
26342;DHT22;14054;50.108;8.640;2024-01-06T15:31:52;7.10;99.90
26342;DHT22;14054;50.108;8.640;2024-01-06T15:34:23;7.10;99.90
26342;DHT22;14054;50.108;8.640;2024-01-06T15:36:49;7.00;99.90
26342;DHT22;14054;50.108;8.640;2024-01-06T15:39:14;7.10;99.90
26342;DHT22;14054;50.108;8.640;2024-01-06T15:41:40;7.00;99.90
26342;DHT22;14054;50.108;8.640;2024-01-06T15:44:06;7.00;99.90
26342;DHT22;14054;50.108;8.640;2024-01-06T15:46:31;7.00;99.90